Time;durP1;ratioP1;P1;durP2;ratioP2;P2;SDS_P1;SDS_P2;PMS_P1;PMS_P2;Temp;Humidity;BMP_temperature;BMP_pressure;BME280_temperature;BME280_humidity;BME280_pressure;Samples;Min_cycle;Max_cycle;Signal;HPM_P1;HPM_P2
2023/10/30 00:02:22;;;;;;;2.00;0.60;;;20.10;69.10;;;;;;5093723;28;20116;-63
2023/10/30 00:04:48;;;;;;;2.50;0.65;;;20.00;68.50;;;;;;5094573;28;20032;-63
2023/10/30 00:07:14;;;;;;;3.15;0.63;;;20.00;68.50;;;;;;5094205;28;20048;-65
2023/10/30 00:09:40;;;;;;;1.33;0.52;;;20.00;68.50;;;;;;5109971;28;20119;-63
2023/10/30 00:12:06;;;;;;;1.98;0.50;;;20.00;68.50;;;;;;5113532;28;20066;-62
2023/10/30 00:14:33;;;;;;;4.32;0.63;;;20.00;68.50;;;;;;5113425;28;20399;-63
2023/10/30 00:16:58;;;;;;;2.55;0.85;;;20.00;69.10;;;;;;5112665;28;20105;-63
2023/10/30 00:19:24;;;;;;;4.05;0.63;;;20.00;68.50;;;;;;5112789;28;20036;-62
2023/10/30 00:21:50;;;;;;;2.03;0.70;;;20.00;68.50;;;;;;5114500;28;20048;-62
2023/10/30 00:24:15;;;;;;;2.63;0.57;;;20.00;68.50;;;;;;5112136;28;20501;-63
2023/10/30 00:26:41;;;;;;;1.52;0.40;;;20.00;68.50;;;;;;5112926;28;20061;-63
2023/10/30 00:29:07;;;;;;;2.50;0.80;;;20.00;68.50;;;;;;5112927;28;20061;-63
2023/10/30 00:31:34;;;;;;;1.52;0.50;;;20.00;68.50;;;;;;5112013;28;20039;-63
2023/10/30 00:33:59;;;;;;;2.28;0.60;;;20.00;68.50;;;;;;5114551;28;20065;-62
2023/10/30 00:36:25;;;;;;;3.50;0.80;;;20.00;68.50;;;;;;5112473;28;20039;-63
2023/10/30 00:38:50;;;;;;;1.48;0.50;;;20.00;68.50;;;;;;5113526;28;20429;-63
2023/10/30 00:41:16;;;;;;;1.00;0.50;;;19.90;68.50;;;;;;5102743;28;20395;-63
2023/10/30 00:43:41;;;;;;;2.85;0.60;;;19.90;68.50;;;;;;5097812;28;20076;-63
2023/10/30 00:46:07;;;;;;;2.15;0.40;;;19.90;68.40;;;;;;5112563;28;20108;-63
2023/10/30 00:48:33;;;;;;;3.08;0.80;;;19.90;68.40;;;;;;5112533;28;20047;-63
2023/10/30 00:50:59;;;;;;;1.73;0.70;;;19.90;68.40;;;;;;5112021;28;20028;-63
2023/10/30 00:53:24;;;;;;;2.13;0.65;;;19.90;68.50;;;;;;5112189;28;20043;-63
2023/10/30 00:55:50;;;;;;;1.23;0.50;;;19.90;68.50;;;;;;5110151;28;20541;-62
2023/10/30 00:58:16;;;;;;;1.88;0.52;;;19.90;68.40;;;;;;5108297;28;20036;-63
2023/10/30 01:00:42;;;;;;;1.90;0.45;;;19.90;68.40;;;;;;5093721;28;20075;-63
2023/10/30 01:03:07;;;;;;;1.83;0.50;;;19.90;68.40;;;;;;5092189;28;20483;-63
2023/10/30 01:05:33;;;;;;;2.15;0.40;;;19.90;68.40;;;;;;5090954;28;20094;-63
2023/10/30 01:07:59;;;;;;;2.55;0.45;;;19.90;68.40;;;;;;5093277;28;20044;-63
2023/10/30 01:10:24;;;;;;;2.45;0.50;;;19.80;68.30;;;;;;5092848;28;20105;-63
2023/10/30 01:12:50;;;;;;;1.20;0.40;;;19.80;68.30;;;;;;5091377;28;20105;-63
2023/10/30 01:15:19;;;;;;;1.17;0.50;;;19.80;68.30;;;;;;5091246;28;20097;-63
2023/10/30 01:17:44;;;;;;;1.83;0.55;;;19.80;68.30;;;;;;5093207;28;20052;-63
2023/10/30 01:20:10;;;;;;;1.15;0.38;;;19.80;68.30;;;;;;5092052;28;20051;-63
2023/10/30 01:22:36;;;;;;;1.30;0.40;;;19.80;68.30;;;;;;5092981;28;20384;-63
2023/10/30 01:25:03;;;;;;;0.75;0.40;;;19.80;68.30;;;;;;5096571;28;20486;-63
2023/10/30 01:27:29;;;;;;;4.03;0.63;;;19.80;68.30;;;;;;5112562;28;20035;-63
2023/10/30 01:29:54;;;;;;;3.28;0.77;;;19.80;68.30;;;;;;5113757;28;20044;-63
2023/10/30 01:32:20;;;;;;;3.17;0.55;;;19.80;68.30;;;;;;5113036;28;20043;-62
2023/10/30 01:34:45;;;;;;;1.15;0.47;;;19.80;68.30;;;;;;5111340;28;20079;-62
2023/10/30 01:37:11;;;;;;;2.15;0.50;;;19.80;68.30;;;;;;5112923;28;20044;-63
2023/10/30 01:39:37;;;;;;;0.95;0.50;;;19.80;68.30;;;;;;5112840;28;20184;-62
2023/10/30 01:42:03;;;;;;;1.55;0.45;;;19.80;68.30;;;;;;5111114;28;20043;-63
2023/10/30 01:44:28;;;;;;;1.55;0.50;;;19.80;68.30;;;;;;5112874;28;20134;-63
2023/10/30 01:46:54;;;;;;;1.10;0.50;;;19.80;68.30;;;;;;5111335;28;20096;-63
2023/10/30 01:49:20;;;;;;;1.63;0.40;;;19.70;68.80;;;;;;5128359;27;20043;-63
2023/10/30 01:51:45;;;;;;;2.38;0.68;;;19.70;68.20;;;;;;5095255;28;20131;-63
2023/10/30 01:54:11;;;;;;;0.98;0.30;;;19.70;68.20;;;;;;5110555;28;20145;-63
2023/10/30 01:56:36;;;;;;;1.83;0.50;;;19.70;68.20;;;;;;5111841;28;20040;-63
2023/10/30 01:59:02;;;;;;;1.05;0.40;;;19.70;68.20;;;;;;5114683;28;20035;-63
2023/10/30 02:01:27;;;;;;;1.85;0.47;;;19.70;68.20;;;;;;5115109;28;20054;-63
2023/10/30 02:03:55;;;;;;;1.55;0.40;;;19.70;68.20;;;;;;5115974;28;20032;-63
2023/10/30 02:06:20;;;;;;;1.67;0.67;;;19.70;68.20;;;;;;5115689;28;20440;-63
2023/10/30 02:08:46;;;;;;;2.25;0.60;;;19.70;68.20;;;;;;5114920;28;20475;-63
2023/10/30 02:11:12;;;;;;;1.73;0.50;;;19.70;68.20;;;;;;5116662;28;20054;-63
2023/10/30 02:13:37;;;;;;;2.95;0.50;;;19.70;68.20;;;;;;5115839;28;20032;-63
2023/10/30 02:16:03;;;;;;;2.42;0.50;;;19.70;68.20;;;;;;5116177;28;20092;-63
2023/10/30 02:18:28;;;;;;;3.13;0.60;;;19.70;68.20;;;;;;5116586;28;20502;-63
2023/10/30 02:20:54;;;;;;;2.10;0.60;;;19.70;68.20;;;;;;5115401;28;20533;-63
2023/10/30 02:23:20;;;;;;;1.35;0.55;;;19.70;68.10;;;;;;5114586;28;20043;-63
2023/10/30 02:25:45;;;;;;;2.40;0.47;;;19.70;68.10;;;;;;5115457;28;20044;-63
2023/10/30 02:28:11;;;;;;;3.20;0.40;;;19.60;68.10;;;;;;5114960;28;20051;-63
2023/10/30 02:30:36;;;;;;;1.98;0.40;;;19.60;68.00;;;;;;5115711;28;20479;-63
2023/10/30 02:33:02;;;;;;;1.95;0.40;;;19.60;68.10;;;;;;5109144;28;20122;-63
2023/10/30 02:35:28;;;;;;;3.83;0.88;;;19.60;68.00;;;;;;5111928;28;20398;-63
2023/10/30 02:37:54;;;;;;;1.65;0.40;;;19.60;68.00;;;;;;5095242;28;20044;-63
2023/10/30 02:40:19;;;;;;;2.13;0.57;;;19.60;68.00;;;;;;5103731;28;20112;-63
2023/10/30 02:42:45;;;;;;;2.40;0.50;;;19.60;67.90;;;;;;5116639;28;20417;-62
2023/10/30 02:45:11;;;;;;;1.92;0.50;;;19.60;67.90;;;;;;5115670;28;20046;-63
2023/10/30 02:47:36;;;;;;;2.35;0.40;;;19.60;67.90;;;;;;5116574;28;20035;-63
2023/10/30 02:50:02;;;;;;;1.90;0.40;;;19.60;67.90;;;;;;5116518;28;20182;-63
2023/10/30 02:52:28;;;;;;;3.22;0.50;;;19.60;67.90;;;;;;5094682;28;20028;-63
2023/10/30 02:54:54;;;;;;;1.45;0.43;;;19.60;67.80;;;;;;5094614;28;20048;-63
2023/10/30 02:57:20;;;;;;;1.70;0.50;;;19.60;67.80;;;;;;5093441;28;20117;-63
2023/10/30 02:59:45;;;;;;;2.90;0.50;;;19.60;67.80;;;;;;5094458;28;20143;-63
2023/10/30 03:02:11;;;;;;;1.17;0.45;;;19.60;67.80;;;;;;5095314;28;20541;-63
2023/10/30 03:04:36;;;;;;;2.03;0.50;;;19.60;67.80;;;;;;5093472;28;20036;-62
2023/10/30 03:07:02;;;;;;;2.60;0.60;;;19.60;67.70;;;;;;5094336;28;20047;-64
2023/10/30 03:09:30;;;;;;;2.05;0.52;;;19.60;67.70;;;;;;5110885;28;20529;-63
2023/10/30 03:11:55;;;;;;;2.13;0.60;;;19.60;67.70;;;;;;5093724;28;20158;-63
2023/10/30 03:14:21;;;;;;;3.60;0.60;;;19.50;67.60;;;;;;5095489;28;20079;-63
2023/10/30 03:16:47;;;;;;;1.90;0.55;;;19.50;67.60;;;;;;5094252;28;20419;-63
2023/10/30 03:19:13;;;;;;;1.73;0.43;;;19.60;67.60;;;;;;5094268;28;20144;-63
2023/10/30 03:21:38;;;;;;;5.22;1.27;;;19.50;67.60;;;;;;5095480;28;20036;-63
2023/10/30 03:24:04;;;;;;;3.40;0.60;;;19.50;67.50;;;;;;5093772;28;20480;-63
2023/10/30 03:26:30;;;;;;;3.20;0.57;;;19.50;67.40;;;;;;5093158;28;20052;-63
2023/10/30 03:28:56;;;;;;;3.33;0.73;;;19.50;67.50;;;;;;5095346;28;20036;-62
2023/10/30 03:31:22;;;;;;;2.03;0.50;;;19.50;68.10;;;;;;5093933;28;20055;-63
2023/10/30 03:33:47;;;;;;;1.02;0.40;;;19.50;67.50;;;;;;5093353;28;20166;-62
2023/10/30 03:36:20;;;;;;;3.65;0.47;;;19.50;67.50;;;;;;5093429;28;20126;-63
2023/10/30 03:38:45;;;;;;;2.13;0.50;;;19.50;67.40;;;;;;5093670;28;20482;-63
2023/10/30 03:41:11;;;;;;;2.72;0.77;;;19.50;67.40;;;;;;5093865;28;20082;-62
2023/10/30 03:43:36;;;;;;;3.17;0.63;;;19.50;67.50;;;;;;5094957;28;20496;-62
2023/10/30 03:46:02;;;;;;;2.72;0.50;;;19.50;67.40;;;;;;5093704;28;20032;-62
2023/10/30 03:48:28;;;;;;;2.65;0.40;;;19.50;67.40;;;;;;5092632;28;20173;-62
2023/10/30 03:50:53;;;;;;;2.10;0.50;;;19.50;67.50;;;;;;5093467;28;20048;-63
2023/10/30 03:53:19;;;;;;;1.60;0.40;;;19.50;67.40;;;;;;5093252;28;20036;-63
2023/10/30 03:55:44;;;;;;;2.00;0.50;;;19.50;67.40;;;;;;5092676;28;20051;-62
2023/10/30 03:58:10;;;;;;;1.02;0.50;;;19.50;67.40;;;;;;5094495;28;20047;-63
2023/10/30 04:00:35;;;;;;;2.38;0.50;;;19.50;67.40;;;;;;5093807;28;20403;-62
2023/10/30 04:03:01;;;;;;;2.65;0.70;;;19.50;67.50;;;;;;5093641;28;20554;-63
2023/10/30 04:05:26;;;;;;;1.52;0.47;;;19.50;67.40;;;;;;5092954;28;20449;-63
2023/10/30 04:07:52;;;;;;;2.40;0.40;;;19.50;67.40;;;;;;5093933;28;20043;-62
2023/10/30 04:10:18;;;;;;;1.40;0.50;;;19.50;68.10;;;;;;5094051;28;20079;-63
2023/10/30 04:12:44;;;;;;;2.67;0.50;;;19.50;67.50;;;;;;5094475;28;20075;-63
2023/10/30 04:15:10;;;;;;;2.47;0.55;;;19.50;67.40;;;;;;5093185;28;20096;-63
2023/10/30 04:17:35;;;;;;;2.20;0.50;;;19.50;67.40;;;;;;5094255;28;20053;-63
2023/10/30 04:20:01;;;;;;;1.95;0.57;;;19.60;67.50;;;;;;5114548;28;20545;-63
2023/10/30 04:22:27;;;;;;;3.05;0.55;;;19.60;67.50;;;;;;5112905;28;20046;-63
2023/10/30 04:24:52;;;;;;;2.13;0.35;;;19.60;67.50;;;;;;5114847;28;20047;-63
2023/10/30 04:27:18;;;;;;;2.70;0.68;;;19.60;67.50;;;;;;5114215;28;20035;-63
2023/10/30 04:29:44;;;;;;;3.90;0.50;;;19.60;67.40;;;;;;5112719;28;20121;-63
2023/10/30 04:32:09;;;;;;;1.25;0.45;;;19.60;67.50;;;;;;5114292;28;20039;-63
2023/10/30 04:34:35;;;;;;;1.38;0.40;;;19.60;67.50;;;;;;5112906;28;20040;-63
2023/10/30 04:37:00;;;;;;;1.48;0.57;;;19.60;67.50;;;;;;5112361;28;20043;-63
2023/10/30 04:39:26;;;;;;;2.08;0.57;;;19.60;67.50;;;;;;5113616;28;20039;-63
2023/10/30 04:41:54;;;;;;;2.08;0.50;;;19.60;67.50;;;;;;5113400;28;20043;-63
2023/10/30 04:44:20;;;;;;;4.00;0.77;;;19.60;67.50;;;;;;5113264;28;20109;-62
2023/10/30 04:46:46;;;;;;;3.85;0.70;;;19.70;67.50;;;;;;5112977;28;20499;-62
2023/10/30 04:49:11;;;;;;;2.10;0.40;;;19.70;67.50;;;;;;5112642;28;20039;-63
2023/10/30 04:51:37;;;;;;;3.38;0.60;;;19.70;67.50;;;;;;5112398;28;20048;-63
2023/10/30 04:54:02;;;;;;;2.10;0.45;;;19.70;67.50;;;;;;5113853;28;20043;-63
2023/10/30 04:56:28;;;;;;;1.70;0.50;;;19.70;67.50;;;;;;5113777;28;20117;-63
2023/10/30 04:58:53;;;;;;;1.98;0.60;;;19.70;67.50;;;;;;5113081;28;20039;-63
2023/10/30 05:01:19;;;;;;;2.80;0.60;;;19.70;67.50;;;;;;5113360;28;20127;-62
2023/10/30 05:03:45;;;;;;;1.48;0.60;;;19.70;67.50;;;;;;5111415;28;20040;-62
2023/10/30 05:06:10;;;;;;;1.75;0.60;;;19.80;67.60;;;;;;5111558;28;20511;-63
2023/10/30 05:08:36;;;;;;;2.15;0.50;;;19.80;67.50;;;;;;5113416;28;20062;-62
2023/10/30 05:11:02;;;;;;;2.00;0.50;;;19.80;67.50;;;;;;5111958;28;20486;-62
2023/10/30 05:13:28;;;;;;;1.85;0.50;;;19.80;67.60;;;;;;5111985;28;20403;-63
2023/10/30 05:15:57;;;;;;;1.25;0.40;;;19.80;67.60;;;;;;5113626;28;20051;-63
2023/10/30 05:18:24;;;;;;;2.30;0.52;;;19.80;67.60;;;;;;5112452;28;20044;-63
2023/10/30 05:20:50;;;;;;;2.60;0.60;;;19.90;67.60;;;;;;5112200;28;20542;-64
2023/10/30 05:23:16;;;;;;;2.08;0.40;;;19.80;67.50;;;;;;5113139;28;20123;-63
2023/10/30 05:25:42;;;;;;;1.60;0.40;;;19.80;67.50;;;;;;5111635;28;20051;-63
2023/10/30 05:28:07;;;;;;;1.45;0.30;;;19.90;67.60;;;;;;5112376;28;20372;-62
2023/10/30 05:30:36;;;;;;;2.78;0.43;;;19.90;67.60;;;;;;5111778;28;20475;-62
2023/10/30 05:33:02;;;;;;;1.83;0.50;;;19.90;67.60;;;;;;5110528;28;20039;-62
2023/10/30 05:35:27;;;;;;;2.60;0.63;;;19.90;67.60;;;;;;5111676;28;20084;-63
2023/10/30 05:37:53;;;;;;;2.20;0.50;;;19.90;67.60;;;;;;5113083;28;20501;-63
2023/10/30 05:40:20;;;;;;;1.15;0.40;;;19.90;67.60;;;;;;5111995;28;20039;-62
2023/10/30 05:42:46;;;;;;;2.47;0.60;;;19.90;67.60;;;;;;5112277;28;20043;-63
2023/10/30 05:45:11;;;;;;;1.98;0.40;;;19.90;67.60;;;;;;5111522;28;20486;-62
2023/10/30 05:47:37;;;;;;;2.33;0.50;;;19.90;67.60;;;;;;5111227;28;20057;-63
2023/10/30 05:50:03;;;;;;;1.80;0.50;;;19.90;67.60;;;;;;5111847;28;20044;-63
2023/10/30 05:52:29;;;;;;;2.20;0.68;;;19.90;67.50;;;;;;5112563;28;20055;-63
2023/10/30 05:54:54;;;;;;;1.08;0.47;;;20.00;67.60;;;;;;5111278;28;20498;-62
2023/10/30 05:57:20;;;;;;;2.10;0.60;;;20.00;67.60;;;;;;5112708;28;20126;-63
2023/10/30 05:59:45;;;;;;;2.15;0.45;;;20.00;67.60;;;;;;5111601;28;20510;-63
2023/10/30 06:02:11;;;;;;;3.97;0.65;;;20.00;67.60;;;;;;5110903;28;20478;-63
2023/10/30 06:04:37;;;;;;;2.40;0.60;;;20.00;67.60;;;;;;5111692;28;20075;-63
2023/10/30 06:07:03;;;;;;;2.20;0.45;;;20.00;67.60;;;;;;5110989;28;20047;-63
2023/10/30 06:09:28;;;;;;;2.13;0.70;;;20.00;67.60;;;;;;5112241;28;20047;-63
2023/10/30 06:11:54;;;;;;;1.88;0.40;;;20.00;67.60;;;;;;5112910;28;20439;-63
2023/10/30 06:14:19;;;;;;;2.28;0.40;;;20.00;67.60;;;;;;5110729;28;20137;-64
2023/10/30 06:16:45;;;;;;;3.88;0.70;;;20.00;67.60;;;;;;5111483;28;20048;-63
2023/10/30 06:19:11;;;;;;;3.75;0.70;;;20.00;67.60;;;;;;5111193;28;20188;-63
2023/10/30 06:21:40;;;;;;;2.95;0.57;;;20.00;67.50;;;;;;5111117;28;20105;-63
2023/10/30 06:24:08;;;;;;;3.97;0.60;;;20.00;67.50;;;;;;5111684;28;20039;-64
2023/10/30 06:26:34;;;;;;;4.10;0.50;;;20.00;67.60;;;;;;5111934;28;20051;-63
2023/10/30 06:29:00;;;;;;;4.07;0.52;;;20.00;67.50;;;;;;5111939;28;20044;-64
2023/10/30 06:31:26;;;;;;;2.67;0.55;;;20.00;67.50;;;;;;5112243;28;20062;-63
2023/10/30 06:33:52;;;;;;;2.75;0.50;;;20.00;67.50;;;;;;5091377;28;20044;-63
2023/10/30 06:36:17;;;;;;;5.60;0.70;;;20.00;67.50;;;;;;5091495;28;20048;-64
2023/10/30 06:38:43;;;;;;;4.50;0.88;;;20.00;67.60;;;;;;5092003;28;20083;-66
2023/10/30 06:41:08;;;;;;;2.67;0.40;;;20.00;67.60;;;;;;5106890;28;20043;-64
2023/10/30 06:43:34;;;;;;;2.42;0.63;;;20.00;67.60;;;;;;5110504;28;20051;-64
2023/10/30 06:46:00;;;;;;;4.55;0.70;;;20.00;67.60;;;;;;5115970;28;20039;-63
2023/10/30 06:48:26;;;;;;;3.15;0.70;;;19.90;67.50;;;;;;5114702;28;20113;-63
2023/10/30 06:50:51;;;;;;;2.50;0.80;;;19.90;67.60;;;;;;5115820;28;20044;-63
2023/10/30 06:53:17;;;;;;;3.83;0.60;;;20.00;67.70;;;;;;5114231;28;20051;-64
2023/10/30 06:55:42;;;;;;;2.60;0.70;;;20.00;67.70;;;;;;5116311;28;20043;-63
2023/10/30 06:58:08;;;;;;;2.55;0.60;;;20.00;67.80;;;;;;5115501;28;20044;-64
2023/10/30 07:00:34;;;;;;;4.10;0.50;;;20.00;67.90;;;;;;5114780;28;20103;-65
2023/10/30 07:02:59;;;;;;;6.50;0.60;;;20.00;68.00;;;;;;5116088;28;20518;-64
2023/10/30 07:05:25;;;;;;;1.67;0.70;;;20.00;68.00;;;;;;5113347;28;20172;-66
2023/10/30 07:07:51;;;;;;;4.03;0.60;;;20.00;68.10;;;;;;5114406;28;20043;-63
2023/10/30 07:10:17;;;;;;;3.45;0.50;;;20.00;68.20;;;;;;5114197;28;20650;-64
2023/10/30 07:12:43;;;;;;;5.65;0.90;;;20.00;68.20;;;;;;5114318;28;20130;-64
2023/10/30 07:15:09;;;;;;;3.78;0.68;;;20.00;68.30;;;;;;5114677;28;20575;-66
2023/10/30 07:17:34;;;;;;;3.08;0.57;;;20.00;68.30;;;;;;5114910;28;20130;-65
2023/10/30 07:20:00;;;;;;;5.97;0.77;;;20.00;68.40;;;;;;5115786;28;20045;-65
2023/10/30 07:22:27;;;;;;;4.47;0.50;;;20.10;68.50;;;;;;5113904;28;20061;-64
2023/10/30 07:24:53;;;;;;;4.57;0.55;;;20.10;68.50;;;;;;5113563;28;20487;-65
2023/10/30 07:27:18;;;;;;;4.97;1.45;;;20.10;68.50;;;;;;5131374;27;20131;-66
2023/10/30 07:29:44;;;;;;;3.50;0.63;;;20.10;68.50;;;;;;5115842;28;20487;-65
2023/10/30 07:32:10;;;;;;;4.07;0.80;;;20.10;68.50;;;;;;5114787;28;20044;-65
2023/10/30 07:34:35;;;;;;;3.10;0.50;;;20.10;68.60;;;;;;5115744;28;20471;-65
2023/10/30 07:37:01;;;;;;;3.45;1.13;;;20.10;68.60;;;;;;5114109;28;20035;-63
2023/10/30 07:39:27;;;;;;;4.72;0.80;;;20.10;68.70;;;;;;5112055;28;20050;-64
2023/10/30 07:41:52;;;;;;;5.13;0.60;;;20.10;68.70;;;;;;5113229;28;20047;-63
2023/10/30 07:44:18;;;;;;;5.72;0.77;;;20.20;68.70;;;;;;5114809;27;20039;-61
2023/10/30 07:46:43;;;;;;;3.05;0.68;;;20.20;68.60;;;;;;5114335;28;20044;-62
2023/10/30 07:49:09;;;;;;;2.55;0.60;;;20.20;68.60;;;;;;5128703;27;20039;-63
2023/10/30 07:51:34;;;;;;;8.48;0.70;;;20.20;68.50;;;;;;5135327;27;20046;-64
2023/10/30 07:54:00;;;;;;;6.10;0.90;;;20.30;68.50;;;;;;5134247;27;20046;-62
2023/10/30 07:56:25;;;;;;;6.50;0.80;;;20.30;68.50;;;;;;5134195;27;20107;-63
2023/10/30 07:58:51;;;;;;;8.20;0.80;;;20.30;68.50;;;;;;5133822;27;20035;-63
2023/10/30 08:01:20;;;;;;;3.33;0.63;;;20.30;68.50;;;;;;5133281;27;20057;-62
2023/10/30 08:03:46;;;;;;;3.90;0.70;;;20.40;68.60;;;;;;5133534;27;20050;-63
2023/10/30 08:06:12;;;;;;;3.80;0.80;;;20.40;68.60;;;;;;5135206;27;20120;-62
2023/10/30 08:08:38;;;;;;;3.10;0.80;;;20.30;68.60;;;;;;5132959;27;20043;-62
2023/10/30 08:11:04;;;;;;;4.57;0.80;;;20.40;68.60;;;;;;5135182;27;20054;-62
2023/10/30 08:13:29;;;;;;;4.30;0.70;;;20.40;68.60;;;;;;5134729;27;20039;-63
2023/10/30 08:15:55;;;;;;;2.63;0.70;;;20.40;68.60;;;;;;5106601;27;20048;-63
2023/10/30 08:18:21;;;;;;;3.55;0.88;;;20.50;68.60;;;;;;5107424;27;20063;-62
2023/10/30 08:20:46;;;;;;;3.33;0.65;;;20.50;68.50;;;;;;5113413;28;20123;-62
2023/10/30 08:23:12;;;;;;;5.93;1.23;;;20.50;68.50;;;;;;5113572;27;20031;-64
2023/10/30 08:25:38;;;;;;;2.85;0.70;;;20.50;68.50;;;;;;5104019;28;20472;-62
2023/10/30 08:28:03;;;;;;;5.22;0.77;;;20.50;68.50;;;;;;5109014;28;20092;-63
2023/10/30 08:30:29;;;;;;;3.95;0.70;;;20.50;68.50;;;;;;5111980;28;20591;-63
2023/10/30 08:32:56;;;;;;;4.15;0.77;;;20.50;68.60;;;;;;5107832;28;20039;-62
2023/10/30 08:35:22;;;;;;;4.75;0.70;;;20.50;68.50;;;;;;5112787;28;20044;-63
2023/10/30 08:37:48;;;;;;;3.83;0.70;;;20.50;68.40;;;;;;5113242;27;20059;-62
2023/10/30 08:40:13;;;;;;;3.83;0.70;;;20.50;68.40;;;;;;5112603;28;20040;-63
2023/10/30 08:42:39;;;;;;;4.90;1.10;;;20.60;68.50;;;;;;5111686;28;20043;-65
2023/10/30 08:45:07;;;;;;;4.38;0.75;;;20.50;68.50;;;;;;5113025;28;20376;-64
2023/10/30 08:47:32;;;;;;;5.65;0.80;;;20.60;68.60;;;;;;5112017;28;20451;-66
2023/10/30 08:49:58;;;;;;;4.68;1.05;;;20.60;68.60;;;;;;5110382;28;20032;-65
2023/10/30 08:52:23;;;;;;;4.80;0.70;;;20.60;68.70;;;;;;5112917;28;20043;-65
2023/10/30 08:54:49;;;;;;;5.03;1.02;;;20.60;68.60;;;;;;5113323;28;20505;-65
2023/10/30 08:57:19;;;;;;;5.30;0.68;;;20.60;68.60;;;;;;5111755;28;20397;-64
2023/10/30 08:59:45;;;;;;;5.20;0.85;;;20.70;68.60;;;;;;5113677;28;20048;-66
2023/10/30 09:02:10;;;;;;;7.47;1.38;;;20.70;68.60;;;;;;5112855;28;20046;-66
2023/10/30 09:04:36;;;;;;;5.47;0.60;;;20.70;68.60;;;;;;5112465;28;20043;-64
2023/10/30 09:07:02;;;;;;;5.07;0.93;;;20.70;68.60;;;;;;5113629;28;20044;-65
2023/10/30 09:09:28;;;;;;;9.25;1.33;;;20.70;68.50;;;;;;5128897;27;20414;-66
2023/10/30 09:11:53;;;;;;;3.83;0.90;;;20.70;68.40;;;;;;5112979;28;20130;-65
2023/10/30 09:14:19;;;;;;;5.18;0.88;;;20.70;68.50;;;;;;5113522;28;20031;-64
2023/10/30 09:16:45;;;;;;;6.07;0.90;;;20.70;68.40;;;;;;5112167;28;20483;-65
2023/10/30 09:19:10;;;;;;;7.93;1.00;;;20.70;68.30;;;;;;5112008;28;20071;-64
2023/10/30 09:21:36;;;;;;;6.63;1.20;;;20.70;68.30;;;;;;5113585;28;20047;-62
2023/10/30 09:24:02;;;;;;;10.52;1.10;;;20.70;68.30;;;;;;5112580;28;20055;-62
2023/10/30 09:26:29;;;;;;;5.53;0.75;;;20.70;68.40;;;;;;5113258;28;20044;-63
2023/10/30 09:28:55;;;;;;;4.28;0.98;;;20.70;68.40;;;;;;5112082;28;20054;-64
2023/10/30 09:31:20;;;;;;;7.20;1.10;;;20.70;68.40;;;;;;5111224;28;20107;-64
2023/10/30 09:33:47;;;;;;;9.25;1.13;;;20.70;68.40;;;;;;5112264;28;20460;-64
2023/10/30 09:36:13;;;;;;;6.43;1.00;;;20.70;68.40;;;;;;5111902;28;20051;-63
2023/10/30 09:38:38;;;;;;;6.18;1.00;;;20.60;68.40;;;;;;5111357;28;20051;-62
2023/10/30 09:41:05;;;;;;;4.70;0.70;;;20.60;68.40;;;;;;5113508;28;20472;-63
2023/10/30 09:43:33;;;;;;;8.63;1.30;;;20.60;68.30;;;;;;5111903;28;20394;-63
2023/10/30 09:45:59;;;;;;;;;;;20.60;68.30;;;;;;5113110;28;20040;-63
2023/10/30 09:48:25;;;;;;;5.35;0.93;;;20.60;68.30;;;;;;5111555;28;19924;-63
2023/10/30 09:50:51;;;;;;;4.05;1.05;;;20.60;68.40;;;;;;5094246;28;20085;-63
2023/10/30 09:53:18;;;;;;;7.90;1.08;;;20.60;68.40;;;;;;5109954;28;20047;-63
2023/10/30 09:55:43;;;;;;;6.50;1.15;;;20.60;68.40;;;;;;5112781;28;20051;-64
2023/10/30 09:58:09;;;;;;;9.25;1.02;;;20.50;68.40;;;;;;5110983;28;20036;-64
2023/10/30 10:00:36;;;;;;;6.03;0.90;;;20.50;68.40;;;;;;5111677;28;20047;-64
2023/10/30 10:03:04;;;;;;;8.23;1.00;;;20.50;68.40;;;;;;5111001;28;20039;-64
2023/10/30 10:05:30;;;;;;;;;;;20.50;68.40;;;;;;5112283;28;20055;-64
2023/10/30 10:07:55;;;;;;;9.32;1.13;;;20.50;68.40;;;;;;5110842;28;19920;-63
2023/10/30 10:10:21;;;;;;;6.47;1.20;;;20.50;68.50;;;;;;5110766;28;20036;-63
2023/10/30 10:12:50;;;;;;;5.72;0.95;;;20.50;68.50;;;;;;5112380;28;20044;-63
2023/10/30 10:15:17;;;;;;;6.38;0.95;;;20.50;68.60;;;;;;5111076;28;20055;-63
2023/10/30 10:17:48;;;;;;;5.53;0.90;;;20.50;68.60;;;;;;5094119;28;20130;-63
2023/10/30 10:20:14;;;;;;;4.43;0.68;;;20.50;68.60;;;;;;5113708;28;20079;-63
2023/10/30 10:22:39;;;;;;;5.45;1.00;;;20.50;68.50;;;;;;5116874;28;20071;-63
2023/10/30 10:25:08;;;;;;;5.60;0.82;;;20.50;69.00;;;;;;5116812;28;20047;-63
2023/10/30 10:27:34;;;;;;;6.10;1.02;;;20.50;68.30;;;;;;5116003;28;20104;-63
2023/10/30 10:29:59;;;;;;;5.32;1.58;;;20.50;68.30;;;;;;5116730;28;20040;-62
2023/10/30 10:32:26;;;;;;;7.05;1.00;;;20.50;68.30;;;;;;5116407;28;20042;-63
2023/10/30 10:35:02;;;;;;;7.72;1.25;;;20.50;68.20;;;;;;5115907;28;20040;-63
2023/10/30 10:37:28;;;;;;;7.07;1.00;;;20.50;68.20;;;;;;5116547;28;20048;-63
2023/10/30 10:39:53;;;;;;;7.55;0.95;;;20.50;68.10;;;;;;5116671;28;20570;-63
2023/10/30 10:42:23;;;;;;;7.05;0.88;;;20.40;68.10;;;;;;5115412;28;20040;-63
2023/10/30 10:44:51;;;;;;;6.15;1.10;;;20.50;68.10;;;;;;5115433;28;20122;-63
2023/10/30 10:47:17;;;;;;;5.93;1.17;;;20.40;68.10;;;;;;5115944;28;20436;-63
2023/10/30 10:49:42;;;;;;;8.90;1.10;;;20.40;68.10;;;;;;5115555;28;20050;-63
2023/10/30 10:52:09;;;;;;;5.35;0.90;;;20.40;68.10;;;;;;5116110;28;20040;-63
2023/10/30 10:54:46;;;;;;;6.45;1.20;;;20.40;68.10;;;;;;5114997;28;20169;-63
2023/10/30 10:57:15;;;;;;;4.43;1.40;;;20.40;68.10;;;;;;5115193;28;20616;-63
2023/10/30 10:59:40;;;;;;;5.55;0.90;;;20.40;68.10;;;;;;5098290;28;20044;-63
2023/10/30 11:02:09;;;;;;;7.88;1.38;;;20.40;68.10;;;;;;5114848;28;20039;-63
2023/10/30 11:04:34;;;;;;;;;;;20.40;68.10;;;;;;5080711;28;20048;-63
2023/10/30 11:07:03;;;;;;;5.40;0.63;;;20.40;68.10;;;;;;5116371;28;19919;-63
2023/10/30 11:09:48;;;;;;;3.15;0.98;;;20.30;68.20;;;;;;5096897;28;20047;-63
2023/10/30 11:12:19;;;;;;;7.80;1.02;;;20.40;68.10;;;;;;5114438;28;20079;-64
2023/10/30 11:14:52;;;;;;;5.38;0.90;;;20.40;68.10;;;;;;5115285;28;20057;-63
2023/10/30 11:17:18;;;;;;;5.25;1.10;;;20.40;68.10;;;;;;5112619;28;20527;-64
2023/10/30 11:19:45;;;;;;;6.43;0.77;;;20.40;68.20;;;;;;5114534;28;20043;-63
2023/10/30 11:22:11;;;;;;;4.50;1.00;;;20.30;68.10;;;;;;5113841;28;20506;-63
2023/10/30 11:24:43;;;;;;;5.00;1.15;;;20.40;68.10;;;;;;5112776;28;20067;-63
2023/10/30 11:27:27;;;;;;;4.60;0.82;;;20.30;68.10;;;;;;5114910;28;20453;-63
2023/10/30 11:29:59;;;;;;;5.35;1.48;;;20.30;68.10;;;;;;5115849;28;20055;-63
2023/10/30 11:32:25;;;;;;;6.85;1.05;;;20.30;68.10;;;;;;5111449;28;20082;-64
2023/10/30 11:34:51;;;;;;;5.95;1.00;;;20.30;68.10;;;;;;5097302;28;20079;-64
2023/10/30 11:37:18;;;;;;;6.50;0.90;;;20.30;68.10;;;;;;5115221;28;20043;-64
2023/10/30 11:39:45;;;;;;;8.38;1.42;;;20.30;68.20;;;;;;5113637;28;20100;-64
2023/10/30 11:42:24;;;;;;;6.53;1.05;;;20.30;68.20;;;;;;5113773;28;20115;-64
2023/10/30 11:44:50;;;;;;;5.43;1.10;;;20.30;68.30;;;;;;5112689;28;20039;-63
2023/10/30 11:47:22;;;;;;;5.80;1.40;;;20.30;68.30;;;;;;5112792;28;20081;-63
2023/10/30 11:49:47;;;;;;;6.38;1.10;;;20.30;68.30;;;;;;5115477;28;20043;-63
2023/10/30 11:52:13;;;;;;;5.85;0.80;;;20.30;68.30;;;;;;5113033;28;20385;-63
2023/10/30 11:54:44;;;;;;;7.72;1.35;;;20.30;68.30;;;;;;5114994;28;20039;-63
2023/10/30 11:57:09;;;;;;;8.90;1.58;;;20.30;68.30;;;;;;5115043;28;20046;-62
2023/10/30 11:59:36;;;;;;;5.82;0.90;;;20.30;68.30;;;;;;5114499;28;20043;-62
2023/10/30 12:02:01;;;;;;;3.70;1.05;;;20.30;68.30;;;;;;5114925;27;20061;-62
2023/10/30 12:04:27;;;;;;;3.58;1.00;;;20.30;68.20;;;;;;5114722;28;20463;-62
2023/10/30 12:06:53;;;;;;;7.18;0.95;;;20.30;68.10;;;;;;5114278;28;20043;-62
2023/10/30 12:09:20;;;;;;;6.75;1.00;;;20.30;68.10;;;;;;5114657;28;20040;-62
2023/10/30 12:11:45;;;;;;;6.40;1.30;;;20.30;68.10;;;;;;5114768;28;20399;-62
2023/10/30 12:14:12;;;;;;;5.80;1.30;;;20.30;68.10;;;;;;5112238;28;20046;-62
2023/10/30 12:16:38;;;;;;;3.95;1.00;;;20.30;68.00;;;;;;5112778;28;20059;-62
2023/10/30 12:19:03;;;;;;;4.25;0.70;;;20.40;68.10;;;;;;5114484;27;20070;-62
2023/10/30 12:21:29;;;;;;;5.43;1.00;;;20.30;68.00;;;;;;5112488;28;20210;-62
2023/10/30 12:23:59;;;;;;;2.97;0.90;;;20.40;68.00;;;;;;5114634;28;20475;-62
2023/10/30 12:26:27;;;;;;;3.85;1.15;;;20.40;68.00;;;;;;5114476;28;20071;-62
2023/10/30 12:28:57;;;;;;;4.97;1.15;;;20.30;68.00;;;;;;5114053;28;20425;-62
2023/10/30 12:31:24;;;;;;;3.47;0.80;;;20.30;68.00;;;;;;5112242;28;20395;-61
2023/10/30 12:34:07;;;;;;;4.32;1.00;;;20.30;67.90;;;;;;5113946;28;20104;-62
2023/10/30 12:36:33;;;;;;;5.00;1.33;;;20.30;67.90;;;;;;5108487;28;20070;-62
2023/10/30 12:39:16;;;;;;;6.72;1.35;;;20.30;67.80;;;;;;5105703;28;20051;-61
2023/10/30 12:41:42;;;;;;;5.35;0.90;;;20.30;67.60;;;;;;5109424;28;20044;-62
2023/10/30 12:44:08;;;;;;;4.18;0.80;;;20.30;67.70;;;;;;5093359;28;20044;-62